Overview Statistics Trail Chart Weather Telemetry Raw packets
 

This is the latest recevied weather packets stored in our database for station/object 9W2CHF-3. If no packets are shown the sender has not sent any weather packets the latest 10 day(s).

<< 1 2 3 4 5 >>
Time Temp. Humidity Pressure Rain* Wind** Luminosity Snow
1788588964 35° C 67% 1012.7 hPa - - - -
1788587763 35° C 66% 1013 hPa - - - -
1788586563 35° C 67% 1013.3 hPa - - - -
1788585363 34.44° C 68% 1013.7 hPa - - - -
1788584163 37.22° C 56% 1014.2 hPa - - - -
1788582963 36.67° C 57% 1014.4 hPa - - - -
1788581763 35° C 62% 1014.6 hPa - - - -
1788580562 35.56° C 62% 1014.9 hPa - - - -
1788579362 35° C 66% 1015 hPa - - - -
1788578162 34.44° C 68% 1015.3 hPa - - - -
1788576962 33.89° C 74% 1015.6 hPa - - - -
1788575762 32.78° C 76% 1015.6 hPa - - - -
1788574561 32.78° C 77% 1015.5 hPa - - - -
1788573361 32.22° C 81% 1015.4 hPa - - - -
1788572161 31.67° C 82% 1015.2 hPa - - - -
1788570960 31.11° C 85% 1015.1 hPa - - - -
1788569760 30.56° C 88% 1014.9 hPa - - - -
1788568560 30.56° C 92% 1014.7 hPa - - - -
1788567360 29.44° C 100% 1014.7 hPa - - - -
1788566160 28.33° C 100% 1014.5 hPa - - - -
1788564960 27.78° C 100% 1014.1 hPa - - - -
1788563760 27.22° C 100% 1014.2 hPa - - - -
1788562560 27.22° C 100% 1014 hPa - - - -
1788561360 27.78° C 100% 1013.9 hPa - - - -
1788560160 27.78° C 100% 1013.8 hPa - - - -

* Rain since midnight (hover to see other rain measurements)
** Current wind speed in m/s (hover to see current wind gust speed)